Time;durP1;ratioP1;P1;durP2;ratioP2;P2;SDS_P1;SDS_P2;PMS_P1;PMS_P2;Temp;Humidity;BMP_temperature;BMP_pressure;BME280_temperature;BME280_humidity;BME280_pressure;Samples;Min_cycle;Max_cycle;Signal;HPM_P1;HPM_P2
2023/06/09 00:02:03;;;;;;;11.80;3.50;;;;;;;-146.27;69.62;81972.41;5030470;28;20032;-69
2023/06/09 00:04:32;;;;;;;12.80;3.53;;;;;;;-146.27;69.98;81950.31;5024892;28;20434;-71
2023/06/09 00:06:58;;;;;;;15.00;3.72;;;;;;;-146.27;70.37;82022.63;5020523;28;20029;-70
2023/06/09 00:09:23;;;;;;;10.07;3.10;;;;;;;-146.27;70.69;82004.53;5029494;28;20103;-70
2023/06/09 00:11:49;;;;;;;15.68;3.40;;;;;;;-146.27;70.44;82010.56;5026485;28;20474;-70
2023/06/09 00:14:14;;;;;;;12.48;2.97;;;;;;;-146.27;70.71;82002.53;5026866;28;20524;-70
2023/06/09 00:16:46;;;;;;;14.65;3.42;;;;;;;-146.27;71.86;82026.63;5029520;28;20443;-70
2023/06/09 00:19:16;;;;;;;10.27;3.38;;;;;;;-146.27;71.04;82014.59;5028031;28;20455;-70
2023/06/09 00:21:44;;;;;;;12.30;3.75;;;;;;;-146.27;71.64;82062.78;5029077;28;20691;-70
2023/06/09 00:24:09;;;;;;;15.07;3.38;;;;;;;-146.27;71.13;82038.69;5017817;28;20055;-70
2023/06/09 00:26:35;;;;;;;12.00;3.40;;;;;;;-146.27;72.35;82046.72;5027661;28;20053;-70
2023/06/09 00:29:00;;;;;;;12.18;2.83;;;;;;;-146.27;71.80;82054.75;5027163;28;20075;-70
2023/06/09 00:31:26;;;;;;;16.30;4.05;;;;;;;-146.27;72.16;82078.84;5027426;28;20511;-71
2023/06/09 00:33:51;;;;;;;8.38;3.33;;;;;;;-146.27;73.04;82078.84;5028657;28;20032;-69
2023/06/09 00:36:17;;;;;;;12.20;3.13;;;;;;;-146.27;72.65;82070.81;5026063;28;20033;-71
2023/06/09 00:38:42;;;;;;;15.77;4.40;;;;;;;-146.27;73.52;82111.00;5030195;28;20033;-71
2023/06/09 00:41:07;;;;;;;14.70;4.28;;;;;;;-146.27;73.33;82074.84;5029390;28;20033;-71
2023/06/09 00:43:33;;;;;;;11.18;3.67;;;;;;;-146.27;72.88;82086.91;5025309;28;20065;-70
2023/06/09 00:46:06;;;;;;;16.52;3.40;;;;;;;-146.27;73.95;82153.19;5029030;28;20021;-70
2023/06/09 00:48:31;;;;;;;11.45;2.92;;;;;;;-146.27;74.48;82115.00;5027547;28;20045;-70
2023/06/09 00:50:57;;;;;;;13.98;3.95;;;;;;;-146.27;73.92;82145.16;5028283;28;20477;-70
2023/06/09 00:53:24;;;;;;;11.55;3.15;;;;;;;-146.27;74.99;82157.19;5025903;28;20026;-71
2023/06/09 00:55:50;;;;;;;9.40;3.42;;;;;;;-146.27;74.63;82111.00;5027405;28;20449;-71
2023/06/09 00:58:17;;;;;;;13.00;3.63;;;;;;;-146.27;74.06;82139.13;5026856;28;20112;-70
2023/06/09 01:00:42;;;;;;;12.00;4.13;;;;;;;-146.27;74.96;82215.44;5027946;28;20028;-70
2023/06/09 01:03:10;;;;;;;11.00;3.53;;;;;;;-146.27;75.43;82179.28;5026460;28;20025;-70
2023/06/09 01:05:37;;;;;;;12.05;3.60;;;;;;;-146.27;75.29;82147.16;5029532;28;20128;-71
2023/06/09 01:08:12;;;;;;;8.32;3.58;;;;;;;-146.27;75.09;82143.13;5025019;28;20025;-70
2023/06/09 01:10:52;;;;;;;15.25;3.42;;;;;;;-146.27;74.59;82169.25;5025348;28;20038;-70
2023/06/09 01:13:45;;;;;;;10.85;3.65;;;;;;;-146.27;75.13;82157.19;5018450;28;20465;-71
2023/06/09 01:16:27;;;;;;;12.20;3.78;;;;;;;-146.27;75.25;82205.41;5023984;28;20022;-70
2023/06/09 01:18:54;;;;;;;7.53;3.58;;;;;;;-146.27;74.78;82163.22;5025572;28;20108;-71
2023/06/09 01:21:32;;;;;;;13.70;3.97;;;;;;;-146.27;75.15;82171.25;5023703;28;20029;-70
2023/06/09 01:24:24;;;;;;;10.90;3.60;;;;;;;-146.27;75.36;82155.19;5028827;28;20075;-70
2023/06/09 01:26:54;;;;;;;14.45;3.90;;;;;;;-146.27;75.46;82181.31;5027219;28;20120;-70
2023/06/09 01:29:21;;;;;;;13.07;3.13;;;;;;;-146.27;75.23;82217.47;5028768;28;20033;-70
2023/06/09 01:31:48;;;;;;;11.13;3.95;;;;;;;-146.27;75.23;82203.41;5030700;28;20036;-70
2023/06/09 01:34:14;;;;;;;11.13;3.70;;;;;;;-146.27;75.29;82207.41;5027644;28;20021;-70
2023/06/09 01:36:41;;;;;;;13.13;3.78;;;;;;;-146.27;76.11;82237.53;5027015;28;20112;-70
2023/06/09 01:39:07;;;;;;;16.10;5.28;;;;;;;-146.27;75.61;82255.63;5029239;28;20098;-70
2023/06/09 01:41:33;;;;;;;14.00;4.28;;;;;;;-146.27;76.15;82249.59;5026781;28;20043;-70
2023/06/09 01:43:58;;;;;;;12.18;3.90;;;;;;;-146.27;76.41;82241.56;5018422;28;20463;-70
2023/06/09 01:46:23;;;;;;;7.90;3.90;;;;;;;-146.27;76.20;82251.59;5023958;28;20486;-70
2023/06/09 01:49:06;;;;;;;15.35;4.57;;;;;;;-146.27;76.70;82263.66;5028272;28;20083;-70
2023/06/09 01:51:43;;;;;;;16.67;4.40;;;;;;;-146.27;76.49;82271.69;5014786;28;20391;-70
2023/06/09 01:54:12;;;;;;;12.98;4.13;;;;;;;-146.27;76.21;82283.75;5021856;28;20098;-70
2023/06/09 01:56:44;;;;;;;9.05;3.83;;;;;;;-146.27;76.72;82267.69;5013433;28;20049;-70
2023/06/09 01:59:20;;;;;;;13.02;4.50;;;;;;;-146.27;76.33;82293.78;5022918;28;20029;-69
2023/06/09 02:01:48;;;;;;;9.50;3.92;;;;;;;-146.27;76.03;82261.66;5027501;28;20025;-70
2023/06/09 02:04:14;;;;;;;16.13;4.57;;;;;;;-146.27;76.59;82303.84;5023825;28;20036;-70
2023/06/09 02:06:41;;;;;;;8.95;3.75;;;;;;;-146.27;76.17;82269.69;5015290;28;20029;-70
2023/06/09 02:09:06;;;;;;;9.88;4.40;;;;;;;-146.27;76.08;82247.59;5017733;28;20117;-70
2023/06/09 02:11:31;;;;;;;12.45;3.80;;;;;;;-146.27;75.67;82281.75;5023499;28;20112;-70
2023/06/09 02:13:57;;;;;;;15.15;4.18;;;;;;;-146.27;76.44;82297.81;5025630;28;20083;-70
2023/06/09 02:16:24;;;;;;;11.88;3.78;;;;;;;-146.27;75.73;82285.75;5021854;28;20536;-70
2023/06/09 02:18:49;;;;;;;15.95;3.70;;;;;;;-146.27;75.70;82340.00;5021281;28;20115;-70
2023/06/09 02:21:15;;;;;;;9.35;3.70;;;;;;;-146.27;75.65;82311.88;5022404;28;20108;-69
2023/06/09 02:23:41;;;;;;;13.13;4.30;;;;;;;-146.27;75.73;82323.91;5026959;28;20029;-70
2023/06/09 02:26:06;;;;;;;11.65;3.80;;;;;;;-146.27;75.73;82291.78;5023409;28;20037;-70
2023/06/09 02:28:33;;;;;;;13.88;3.88;;;;;;;-146.27;75.89;82331.97;5020661;28;20041;-70
2023/06/09 02:30:58;;;;;;;10.55;3.65;;;;;;;-146.27;75.40;82344.00;5025955;28;20036;-70
2023/06/09 02:33:24;;;;;;;10.70;3.60;;;;;;;-146.27;76.10;82319.91;5026104;28;20029;-70
2023/06/09 02:35:50;;;;;;;9.93;3.75;;;;;;;-146.27;75.26;82378.16;5023494;28;20112;-69
2023/06/09 02:38:15;;;;;;;11.90;4.35;;;;;;;-146.27;74.91;82337.97;5023206;28;20540;-71
2023/06/09 02:40:47;;;;;;;11.25;3.50;;;;;;;-146.27;74.91;82337.97;5031475;28;20029;-71
2023/06/09 02:43:13;;;;;;;15.95;3.65;;;;;;;-146.27;75.74;82436.41;5023829;28;20083;-71
2023/06/09 02:45:38;;;;;;;12.82;4.07;;;;;;;-146.27;74.86;82307.84;5031396;28;20060;-71
2023/06/09 02:48:04;;;;;;;10.48;3.70;;;;;;;-146.27;74.58;82301.81;5031552;28;20033;-71
2023/06/09 02:50:30;;;;;;;12.38;3.55;;;;;;;-146.27;73.80;82307.84;5028457;28;20129;-71
2023/06/09 02:52:56;;;;;;;9.07;3.65;;;;;;;-146.27;74.40;82305.84;5031094;28;20044;-71
2023/06/09 02:55:21;;;;;;;12.27;4.05;;;;;;;-146.27;74.09;82317.91;5031259;28;20029;-72
2023/06/09 02:57:47;;;;;;;8.75;3.50;;;;;;;-146.27;73.29;82342.00;5031391;28;20021;-71
2023/06/09 03:00:13;;;;;;;8.55;3.72;;;;;;;-146.27;73.53;82315.88;5024163;28;20593;-71
2023/06/09 03:02:41;;;;;;;10.05;3.33;;;;;;;-146.27;73.43;82340.00;5033640;28;20029;-70
2023/06/09 03:05:06;;;;;;;9.75;3.60;;;;;;;-146.27;73.77;82370.13;5032664;28;20018;-70
2023/06/09 03:07:32;;;;;;;9.25;3.92;;;;;;;-146.27;73.95;82398.25;5032605;28;20465;-70
2023/06/09 03:09:59;;;;;;;16.63;4.20;;;;;;;-146.27;72.84;82374.13;5028559;28;20508;-71
2023/06/09 03:12:24;;;;;;;14.40;3.78;;;;;;;-146.27;72.90;82335.97;5031822;28;20452;-71
2023/06/09 03:14:50;;;;;;;9.45;4.38;;;;;;;-146.27;73.10;82414.31;5032906;28;20117;-70
2023/06/09 03:17:17;;;;;;;12.75;4.10;;;;;;;-146.27;72.97;82384.19;5031879;28;20025;-70
2023/06/09 03:19:42;;;;;;;11.02;3.63;;;;;;;-146.27;72.82;82360.09;5025594;28;20465;-70
2023/06/09 03:22:08;;;;;;;10.70;3.28;;;;;;;-146.27;73.38;82418.34;5027208;28;20036;-71
2023/06/09 03:24:33;;;;;;;16.05;4.18;;;;;;;-146.27;73.06;82418.34;5030924;28;20021;-70
2023/06/09 03:26:59;;;;;;;12.25;3.67;;;;;;;-146.27;72.81;82404.28;5029582;28;20229;-70
2023/06/09 03:29:24;;;;;;;8.50;3.25;;;;;;;-146.27;72.17;82462.53;5025831;28;20030;-70
2023/06/09 03:31:49;;;;;;;10.30;3.22;;;;;;;-146.27;71.67;82430.38;5031643;28;20147;-70
2023/06/09 03:34:15;;;;;;;9.00;3.80;;;;;;;-146.27;71.78;82412.31;5030077;28;20512;-69
2023/06/09 03:36:41;;;;;;;10.73;3.80;;;;;;;-146.27;71.31;82384.19;5027265;28;20592;-70
2023/06/09 03:39:07;;;;;;;10.23;3.65;;;;;;;-146.27;71.15;82436.41;5027146;28;20034;-70
2023/06/09 03:41:33;;;;;;;12.18;3.42;;;;;;;-146.27;71.22;82432.41;5027618;28;20033;-71
2023/06/09 03:43:58;;;;;;;10.50;3.55;;;;;;;-146.27;70.37;82404.28;5023469;28;20521;-70
2023/06/09 03:46:23;;;;;;;12.23;3.60;;;;;;;-146.27;70.17;82418.34;5032791;28;20065;-69
2023/06/09 03:48:49;;;;;;;11.18;3.30;;;;;;;-146.27;69.77;82424.38;5032634;28;20026;-70
2023/06/09 03:51:16;;;;;;;7.97;3.33;;;;;;;-146.27;68.74;82396.25;5032227;28;20240;-70
2023/06/09 03:53:41;;;;;;;15.32;3.53;;;;;;;-146.27;69.46;82408.28;5028835;28;20069;-70
2023/06/09 03:56:07;;;;;;;16.42;3.70;;;;;;;-146.27;68.74;82420.34;5030592;28;20064;-69
2023/06/09 03:58:33;;;;;;;13.13;3.88;;;;;;;-146.27;67.61;82400.25;5029304;28;20029;-70
2023/06/09 04:00:58;;;;;;;11.57;3.78;;;;;;;-146.27;68.14;82428.38;5030181;28;20053;-70
2023/06/09 04:03:24;;;;;;;12.63;3.75;;;;;;;-146.27;67.11;82418.34;5015561;28;20148;-69
2023/06/09 04:05:49;;;;;;;11.25;3.60;;;;;;;-146.27;68.11;82420.34;5029508;28;20028;-70
2023/06/09 04:08:15;;;;;;;12.38;3.58;;;;;;;-146.27;68.24;82434.41;5029160;28;20036;-70
2023/06/09 04:10:41;;;;;;;10.18;3.45;;;;;;;-146.27;66.95;82396.25;5026666;28;20076;-70
2023/06/09 04:13:08;;;;;;;10.10;3.17;;;;;;;-146.27;66.51;82380.16;5031733;28;20068;-70
2023/06/09 04:15:33;;;;;;;9.73;3.42;;;;;;;-146.27;66.79;82398.25;5026972;28;20152;-70
2023/06/09 04:18:00;;;;;;;11.23;3.80;;;;;;;-146.27;66.70;82400.25;5020243;28;20056;-70
2023/06/09 04:20:26;;;;;;;10.82;3.53;;;;;;;-146.27;67.63;82428.38;5030111;28;20035;-70
2023/06/09 04:22:52;;;;;;;6.85;2.97;;;;;;;-146.27;67.86;82432.41;5023684;28;20490;-70
2023/06/09 04:25:25;;;;;;;12.27;3.78;;;;;;;-146.27;67.44;82414.31;5024072;28;20075;-70
2023/06/09 04:27:52;;;;;;;10.38;3.30;;;;;;;-146.27;66.96;82384.19;5028967;28;20091;-71
2023/06/09 04:30:19;;;;;;;9.98;3.72;;;;;;;-146.27;67.00;82392.22;5027076;28;20370;-70
2023/06/09 04:32:44;;;;;;;9.10;3.28;;;;;;;-146.27;67.64;82406.28;5025863;28;20148;-70
2023/06/09 04:35:09;;;;;;;12.60;4.10;;;;;;;-146.27;66.22;82432.41;5024181;28;20542;-71
2023/06/09 04:37:36;;;;;;;11.10;3.45;;;;;;;-146.27;66.34;82428.38;5027116;28;20429;-71
2023/06/09 04:40:03;;;;;;;8.60;3.55;;;;;;;-146.27;66.22;82456.50;5026637;28;20029;-70
2023/06/09 04:42:29;;;;;;;11.07;3.33;;;;;;;-146.27;66.84;82404.28;5031774;28;20029;-70
2023/06/09 04:44:54;;;;;;;12.85;3.67;;;;;;;-146.27;66.93;82440.44;5022473;28;20057;-70
2023/06/09 04:47:20;;;;;;;8.00;3.30;;;;;;;-146.27;66.43;82420.34;5025775;28;20041;-71
2023/06/09 04:49:46;;;;;;;17.42;4.93;;;;;;;-146.27;66.57;82382.19;5030360;28;20029;-69
2023/06/09 04:52:19;;;;;;;10.23;3.70;;;;;;;-146.27;66.95;82388.22;5025434;28;20477;-69
2023/06/09 04:54:44;;;;;;;8.80;3.88;;;;;;;-146.27;67.45;82396.25;5029074;28;20025;-69
2023/06/09 04:57:10;;;;;;;14.32;4.45;;;;;;;-146.27;67.55;82392.22;5029702;28;20473;-69
2023/06/09 04:59:41;;;;;;;18.17;6.38;;;;;;;-146.27;67.55;82448.47;5031640;28;20029;-69
2023/06/09 05:02:08;;;;;;;7.85;3.72;;;;;;;-146.27;67.93;82376.16;5028437;28;20499;-69
2023/06/09 05:04:34;;;;;;;11.13;3.90;;;;;;;-146.27;68.09;82386.19;5030181;28;20013;-69
2023/06/09 05:07:01;;;;;;;14.68;4.22;;;;;;;-146.27;67.72;82356.06;5026309;28;20025;-69
2023/06/09 05:09:27;;;;;;;12.10;4.53;;;;;;;-146.27;67.64;82372.13;5024631;28;21885;-69
2023/06/09 05:11:52;;;;;;;12.43;4.18;;;;;;;-146.27;68.51;82372.13;5022119;28;20052;-69
2023/06/09 05:14:18;;;;;;;12.48;4.25;;;;;;;-146.27;67.98;82360.09;5029488;28;20088;-69
2023/06/09 05:16:45;;;;;;;8.32;4.00;;;;;;;-146.27;68.79;82398.25;5026041;28;20060;-69
2023/06/09 05:19:11;;;;;;;11.77;3.38;;;;;;;-146.27;69.19;82352.03;5023355;28;20021;-68
2023/06/09 05:21:37;;;;;;;16.00;4.45;;;;;;;-146.27;69.38;82311.88;5028081;28;20145;-71
2023/06/09 05:24:03;;;;;;;9.98;3.85;;;;;;;-146.27;68.92;82340.00;5025955;28;20532;-69
2023/06/09 05:26:29;;;;;;;9.20;3.90;;;;;;;-146.27;68.67;82396.25;5016178;28;20036;-70
2023/06/09 05:28:55;;;;;;;15.48;4.85;;;;;;;-146.27;69.02;82344.00;5019928;28;20037;-70
2023/06/09 05:31:20;;;;;;;9.27;4.00;;;;;;;-146.27;69.08;82325.94;5021859;28;20446;-70
2023/06/09 05:33:46;;;;;;;11.45;3.92;;;;;;;-146.27;69.53;82337.97;5030580;28;20032;-71
2023/06/09 05:36:12;;;;;;;11.10;4.63;;;;;;;-146.27;69.84;82327.94;5035375;28;20306;-70
2023/06/09 05:38:37;;;;;;;9.88;4.15;;;;;;;-146.27;70.24;82329.94;5024980;28;20040;-69
2023/06/09 05:41:03;;;;;;;9.13;3.97;;;;;;;-146.27;70.32;82319.91;5022190;28;20029;-68
2023/06/09 05:43:29;;;;;;;11.10;4.32;;;;;;;-146.27;70.29;82327.94;5027690;28;20045;-67
2023/06/09 05:45:56;;;;;;;9.95;4.25;;;;;;;-146.27;70.23;82275.72;5025372;28;20022;-69
2023/06/09 05:48:22;;;;;;;12.98;4.30;;;;;;;-146.27;70.79;82291.78;5030267;28;20025;-69
2023/06/09 05:50:47;;;;;;;14.43;4.95;;;;;;;-146.27;71.15;82293.78;5028467;28;20375;-69
2023/06/09 05:53:12;;;;;;;13.35;5.10;;;;;;;-146.27;70.43;82275.72;5023571;28;20083;-71
2023/06/09 05:55:38;;;;;;;14.82;4.45;;;;;;;-146.27;70.67;82243.56;5031217;28;20021;-69
2023/06/09 05:58:04;;;;;;;14.98;4.85;;;;;;;-146.27;70.81;82275.72;5026509;28;20033;-70
2023/06/09 06:00:30;;;;;;;14.73;4.50;;;;;;;-146.27;71.25;82209.44;5023338;28;20029;-68
2023/06/09 06:02:56;;;;;;;11.07;4.15;;;;;;;-146.27;71.64;82195.38;5026453;28;20029;-70
2023/06/09 06:05:22;;;;;;;10.80;4.47;;;;;;;-146.27;71.20;82211.44;5028196;28;20017;-70
2023/06/09 06:07:48;;;;;;;15.00;5.03;;;;;;;-146.27;70.06;82159.22;5028396;28;20029;-71
2023/06/09 06:10:14;;;;;;;16.23;4.38;;;;;;;-146.27;71.13;82183.31;5026301;28;20171;-71
2023/06/09 06:12:39;;;;;;;16.67;4.38;;;;;;;-146.27;70.02;82141.13;5027027;28;20494;-71
2023/06/09 06:15:05;;;;;;;16.02;4.88;;;;;;;-146.27;70.50;82167.25;5026952;28;20160;-69
2023/06/09 06:17:31;;;;;;;18.90;5.15;;;;;;;-146.27;71.02;82149.16;5038296;28;20473;-70
2023/06/09 06:19:57;;;;;;;15.32;4.70;;;;;;;-146.27;71.46;82131.09;5030607;28;20172;-70
2023/06/09 06:22:22;;;;;;;15.63;5.13;;;;;;;-146.27;71.59;82100.97;5029037;28;20025;-70
2023/06/09 06:24:48;;;;;;;12.15;5.00;;;;;;;-146.27;70.54;82121.03;5028226;28;20366;-69
2023/06/09 06:27:13;;;;;;;12.77;4.35;;;;;;;-146.27;70.67;82092.91;5025189;28;20429;-71
2023/06/09 06:29:39;;;;;;;10.73;5.18;;;;;;;-146.27;69.71;82113.00;5020722;28;20493;-71
2023/06/09 06:32:06;;;;;;;9.98;5.03;;;;;;;-146.27;70.82;82054.75;5030515;28;20030;-70
2023/06/09 06:34:31;;;;;;;17.80;5.95;;;;;;;-146.27;70.44;82022.63;5025946;28;20057;-68
2023/06/09 06:36:57;;;;;;;13.98;4.80;;;;;;;-146.27;70.40;82034.66;5035275;28;20057;-69
2023/06/09 06:39:22;;;;;;;13.90;4.70;;;;;;;-146.27;69.81;81972.41;5026022;28;20397;-70
2023/06/09 06:41:47;;;;;;;16.48;5.57;;;;;;;-146.27;70.06;81970.41;5027740;28;20104;-70
2023/06/09 06:44:13;;;;;;;12.50;5.45;;;;;;;-146.27;70.40;82010.56;5026426;28;20025;-69
2023/06/09 06:46:38;;;;;;;10.15;5.07;;;;;;;-146.27;69.94;81946.28;5029004;28;20076;-69
2023/06/09 06:49:06;;;;;;;14.20;5.32;;;;;;;-146.27;69.92;81946.28;5025580;28;20075;-69
2023/06/09 06:51:32;;;;;;;11.10;4.95;;;;;;;-146.27;70.06;81930.22;5025819;28;20025;-69
2023/06/09 06:53:57;;;;;;;11.88;5.30;;;;;;;-146.27;70.87;81896.06;5027875;28;20029;-70
2023/06/09 06:56:25;;;;;;;16.45;5.30;;;;;;;-146.27;70.29;81894.06;5020531;28;20034;-70
2023/06/09 06:58:50;;;;;;;11.68;4.82;;;;;;;-146.27;69.53;81867.97;5021142;28;20095;-70
2023/06/09 07:01:20;;;;;;;11.07;5.00;;;;;;;-146.27;69.77;81892.06;5026610;28;20029;-68
2023/06/09 07:03:46;;;;;;;15.63;5.38;;;;;;;-146.27;70.12;81817.75;5027430;28;20800;-70
2023/06/09 07:06:12;;;;;;;16.20;5.13;;;;;;;-146.27;70.83;81823.78;5024435;28;20025;-69
2023/06/09 07:08:37;;;;;;;12.43;5.65;;;;;;;-146.27;69.14;81807.69;5029721;28;20033;-69
2023/06/09 07:11:02;;;;;;;16.80;5.35;;;;;;;-146.27;69.18;81761.50;5021142;28;20053;-69
2023/06/09 07:13:28;;;;;;;14.05;5.45;;;;;;;-146.27;69.75;81751.47;5022575;28;20470;-69
2023/06/09 07:15:53;;;;;;;10.88;5.10;;;;;;;-146.27;69.72;81753.47;5034271;28;20557;-67
2023/06/09 07:18:19;;;;;;;12.73;5.95;;;;;;;-146.27;68.71;81735.41;5033387;28;20657;-68
2023/06/09 07:20:44;;;;;;;15.73;5.70;;;;;;;-146.27;68.36;81755.47;5035070;28;20025;-68
2023/06/09 07:23:09;;;;;;;15.77;6.25;;;;;;;-146.27;67.97;81673.13;5025473;28;20036;-69
2023/06/09 07:25:35;;;;;;;18.17;5.63;;;;;;;-146.27;68.05;81689.19;5032406;28;20029;-68
2023/06/09 07:28:02;;;;;;;12.75;5.53;;;;;;;-146.27;68.94;81626.94;5035109;28;20061;-68
2023/06/09 07:30:27;;;;;;;12.35;6.10;;;;;;;-146.27;69.07;81616.91;5034584;28;20034;-68
2023/06/09 07:32:53;;;;;;;8.82;4.78;;;;;;;-146.27;69.23;81592.78;5027885;28;20543;-69
2023/06/09 07:35:19;;;;;;;10.15;5.78;;;;;;;-146.27;67.86;81588.78;5036090;28;20033;-68
2023/06/09 07:37:46;;;;;;;15.90;5.65;;;;;;;-146.27;68.22;81504.44;5037034;28;20021;-68
2023/06/09 07:40:11;;;;;;;14.98;6.68;;;;;;;-146.27;66.68;81498.41;5041567;28;20072;-68
2023/06/09 07:42:37;;;;;;;11.48;5.57;;;;;;;-146.27;67.72;81480.31;5040285;28;20420;-68
2023/06/09 07:45:03;;;;;;;15.60;5.50;;;;;;;-146.27;68.05;81440.16;5028640;28;20032;-68
2023/06/09 07:47:29;;;;;;;14.93;5.93;;;;;;;-146.27;68.41;81416.06;5024897;28;20037;-67
2023/06/09 07:49:54;;;;;;;13.02;6.20;;;;;;;-146.27;67.54;81408.03;5021920;28;20029;-67
2023/06/09 07:52:20;;;;;;;15.73;6.20;;;;;;;-146.27;67.08;81387.94;5027684;28;20421;-68
2023/06/09 07:54:45;;;;;;;18.67;6.07;;;;;;;-146.27;67.45;81363.84;5029316;28;20025;-67
2023/06/09 07:57:11;;;;;;;12.48;5.97;;;;;;;-146.27;66.46;81351.78;5031617;28;20424;-67
2023/06/09 07:59:36;;;;;;;15.25;6.55;;;;;;;-146.27;67.95;81293.56;5030717;28;20509;-67
2023/06/09 08:02:01;;;;;;;11.73;5.97;;;;;;;-146.27;68.00;81271.47;5029223;28;20120;-68
2023/06/09 08:04:28;;;;;;;15.15;6.55;;;;;;;-146.27;66.31;81227.28;5026536;28;20473;-67
2023/06/09 08:06:54;;;;;;;14.82;6.65;;;;;;;-146.27;65.45;81251.38;5032261;28;20108;-67
2023/06/09 08:09:20;;;;;;;13.52;6.25;;;;;;;-146.27;66.00;81195.16;5029630;28;20572;-69
2023/06/09 08:11:45;;;;;;;13.88;6.50;;;;;;;-146.27;65.04;81203.19;5029525;28;20084;-69
2023/06/09 08:14:10;;;;;;;16.35;6.70;;;;;;;-146.27;67.58;81157.00;5031487;28;20509;-69
2023/06/09 08:16:36;;;;;;;16.48;5.72;;;;;;;-146.27;65.56;81138.91;5028430;28;20028;-67
2023/06/09 08:19:01;;;;;;;18.05;6.40;;;;;;;-146.27;65.72;81110.81;5021950;28;20087;-67
2023/06/09 08:21:27;;;;;;;13.43;6.40;;;;;;;-146.27;66.21;81074.66;5024355;28;20069;-66
2023/06/09 08:23:52;;;;;;;17.83;6.85;;;;;;;-146.27;66.11;81074.66;5026021;28;20021;-67
2023/06/09 08:26:18;;;;;;;13.77;6.65;;;;;;;-146.27;65.17;81036.50;5030674;28;20488;-67
2023/06/09 08:28:43;;;;;;;16.80;6.43;;;;;;;-146.27;65.71;80982.28;5031813;28;20025;-67
2023/06/09 08:31:09;;;;;;;14.27;6.57;;;;;;;-146.27;65.40;80966.22;5028111;28;20047;-68
2023/06/09 08:33:35;;;;;;;17.45;6.88;;;;;;;-146.27;66.14;80926.06;5023981;28;20033;-67
2023/06/09 08:36:03;;;;;;;14.93;6.82;;;;;;;-146.27;63.97;80912.00;5029219;28;20048;-66
2023/06/09 08:38:32;;;;;;;17.38;6.93;;;;;;;-146.27;65.64;80859.78;5030665;28;20025;-67
2023/06/09 08:41:04;;;;;;;14.63;6.63;;;;;;;-146.27;66.25;80833.69;5029826;28;20475;-68
2023/06/09 08:43:30;;;;;;;9.68;5.82;;;;;;;-146.27;65.12;80781.47;5031328;28;20098;-66
2023/06/09 08:45:57;;;;;;;14.45;6.32;;;;;;;-146.27;65.03;80769.44;5031341;28;20025;-67
2023/06/09 08:48:25;;;;;;;17.60;7.63;;;;;;;-146.27;63.82;80747.34;5031417;28;20033;-68
2023/06/09 08:50:51;;;;;;;15.00;6.82;;;;;;;-146.27;63.63;80699.16;5030319;28;20029;-68
2023/06/09 08:53:17;;;;;;;14.43;6.78;;;;;;;-146.27;62.49;80663.00;5020074;28;20496;-67
2023/06/09 08:55:43;;;;;;;14.77;7.20;;;;;;;-146.27;62.65;80648.97;5030900;28;20025;-67
2023/06/09 08:58:09;;;;;;;21.08;6.65;;;;;;;-146.27;63.00;80646.94;5030712;28;20254;-68
2023/06/09 09:00:36;;;;;;;16.08;7.00;;;;;;;-146.27;63.18;80540.53;5026869;28;20092;-67
2023/06/09 09:03:01;;;;;;;13.60;7.00;;;;;;;-146.27;61.90;80508.41;5028162;28;20032;-67
2023/06/09 09:05:27;;;;;;;11.23;7.07;;;;;;;-146.27;61.26;80456.19;5031175;28;20029;-67
2023/06/09 09:07:52;;;;;;;15.55;6.82;;;;;;;-146.27;62.07;80468.25;5030507;28;20481;-67
2023/06/09 09:10:17;;;;;;;17.73;8.18;;;;;;;-146.27;62.08;80452.19;5030486;28;20508;-67
2023/06/09 09:12:51;;;;;;;13.88;7.07;;;;;;;-146.27;61.58;80448.16;5030196;28;20021;-66
2023/06/09 09:15:17;;;;;;;18.52;7.63;;;;;;;-146.27;60.70;80377.91;5029012;28;20033;-69
2023/06/09 09:17:46;;;;;;;14.90;6.78;;;;;;;-146.27;61.49;80387.94;5016745;28;20300;-70
2023/06/09 09:20:14;;;;;;;10.88;6.95;;;;;;;-146.27;61.04;80293.56;5022618;28;20390;-72
2023/06/09 09:22:50;;;;;;;15.27;7.95;;;;;;;-146.27;59.54;80279.50;5022519;28;20021;-71
2023/06/09 09:25:30;;;;;;;16.80;7.05;;;;;;;-146.27;59.67;80259.44;5024785;28;20063;-72
2023/06/09 09:28:01;;;;;;;21.65;7.72;;;;;;;-146.27;59.67;80235.34;5016101;28;20529;-72
2023/06/09 09:30:46;;;;;;;14.63;7.38;;;;;;;-146.27;59.03;80151.03;5028889;28;20072;-72
2023/06/09 09:33:15;;;;;;;23.05;8.20;;;;;;;-146.27;58.80;80114.88;5030491;28;20044;-72
2023/06/09 09:35:44;;;;;;;12.80;7.25;;;;;;;-146.27;57.30;80143.00;5028219;28;20029;-72
2023/06/09 09:38:12;;;;;;;13.73;8.55;;;;;;;-146.27;57.49;80094.81;5023881;28;20563;-72
2023/06/09 09:40:45;;;;;;;16.52;6.95;;;;;;;-146.27;57.81;80014.50;5021672;28;20033;-72
2023/06/09 09:43:10;;;;;;;;;;;;;;;-146.27;58.39;80012.50;5028206;28;20029;-72
2023/06/09 09:45:39;;;;;;;14.50;7.55;;;;;;;-146.27;57.17;79904.09;5026890;28;19913;-72
2023/06/09 09:48:11;;;;;;;14.45;7.80;;;;;;;-146.27;56.75;79865.94;5010560;28;20045;-71
2023/06/09 09:50:41;;;;;;;11.15;7.43;;;;;;;-146.27;56.18;79857.91;5027784;28;20067;-72
2023/06/09 09:53:08;;;;;;;20.40;7.50;;;;;;;-146.27;56.39;79817.75;5020132;28;20509;-72
2023/06/09 09:55:35;;;;;;;14.52;7.32;;;;;;;-146.27;55.50;79751.50;5019406;28;20029;-72
2023/06/09 09:58:04;;;;;;;13.38;7.90;;;;;;;-146.27;55.22;79669.22;5014179;28;20025;-72
2023/06/09 10:00:30;;;;;;;19.38;7.55;;;;;;;-146.27;55.17;79739.47;5028065;28;20079;-72
2023/06/09 10:03:00;;;;;;;17.63;8.80;;;;;;;-146.27;54.99;79665.19;5027471;28;20036;-72
2023/06/09 10:05:30;;;;;;;16.58;7.25;;;;;;;-146.27;55.76;79617.00;5027603;28;20440;-72
2023/06/09 10:07:58;;;;;;;12.68;7.38;;;;;;;-146.27;56.06;79548.75;5028667;28;21720;-72
2023/06/09 10:10:26;;;;;;;15.77;6.95;;;;;;;-146.27;55.79;79490.53;5027103;28;20045;-72
2023/06/09 10:12:52;;;;;;;12.90;7.72;;;;;;;-146.27;54.93;79438.34;5026044;28;20490;-71
2023/06/09 10:15:19;;;;;;;17.95;8.35;;;;;;;-146.27;53.65;79354.03;5027965;28;20037;-72
2023/06/09 10:17:47;;;;;;;14.02;7.47;;;;;;;-146.27;52.83;79372.13;5028439;28;20564;-72
2023/06/09 10:20:14;;;;;;;13.98;7.25;;;;;;;-146.27;53.81;79279.78;5026787;28;20028;-71
2023/06/09 10:22:40;;;;;;;12.45;7.45;;;;;;;-146.27;52.21;79253.69;5029414;28;20034;-72
2023/06/09 10:25:06;;;;;;;14.38;7.38;;;;;;;-146.27;51.94;79215.53;5025723;28;20599;-72
2023/06/09 10:27:32;;;;;;;13.95;7.13;;;;;;;-146.27;52.19;79215.53;5029297;28;20401;-72
2023/06/09 10:29:58;;;;;;;18.25;7.80;;;;;;;-146.27;51.52;79119.19;5028648;28;20029;-73
2023/06/09 10:32:27;;;;;;;14.77;6.85;;;;;;;-146.27;52.46;79040.91;5030142;28;20021;-71
2023/06/09 10:34:56;;;;;;;15.07;7.95;;;;;;;-146.27;49.60;78964.66;5028809;28;20034;-72
2023/06/09 10:37:32;;;;;;;14.93;7.57;;;;;;;-146.27;49.78;78886.38;5029670;28;20033;-72
2023/06/09 10:40:12;;;;;;;12.88;7.00;;;;;;;-146.27;50.42;78802.09;5028243;28;20457;-73
2023/06/09 10:42:37;;;;;;;16.85;7.78;;;;;;;-146.27;49.16;78814.13;5028988;28;20029;-72
2023/06/09 10:45:18;;;;;;;15.70;8.40;;;;;;;-146.27;48.50;78842.22;5032752;28;20027;-73
2023/06/09 10:47:46;;;;;;;11.75;7.60;;;;;;;-146.27;48.52;78810.09;5031837;28;20029;-71
2023/06/09 10:50:26;;;;;;;15.48;7.43;;;;;;;-146.27;48.21;78737.84;5044794;28;20025;-71
2023/06/09 10:52:56;;;;;;;17.73;7.00;;;;;;;-146.27;49.37;78689.69;5037890;28;20025;-71
2023/06/09 10:55:27;;;;;;;12.48;6.85;;;;;;;-146.27;50.05;78653.56;5045419;28;20057;-73
2023/06/09 10:57:54;;;;;;;19.98;7.55;;;;;;;-146.27;47.73;78595.38;5035840;28;20033;-73
2023/06/09 11:00:20;;;;;;;19.52;6.93;;;;;;;-146.27;49.26;78531.16;5033581;28;20022;-73
2023/06/09 11:02:46;;;;;;;19.20;7.28;;;;;;;-146.27;47.15;78491.00;5029991;28;20036;-72
2023/06/09 11:05:12;;;;;;;13.05;6.60;;;;;;;-146.27;48.64;78358.56;5025846;28;20386;-73
2023/06/09 11:07:43;;;;;;;14.30;6.97;;;;;;;-146.27;47.17;78264.25;5040374;28;20029;-73
2023/06/09 11:10:11;;;;;;;14.90;7.05;;;;;;;-146.27;46.72;78220.09;5044009;28;20080;-73